Harrington, Washington
Current Conditions -  °F | °C
As of 12:18 PM on Thursday 18 Dec 2014 (Local Time) from KSKA Reporting Station
Overcast Overcast  
Wind Chill: 37°   Ceiling: 1000
Heat Index: 37°   Visibility: 10mi
Dew Point: 37°   Wind: 0mph
Humidity: 100%   Direction: NA
Pressure: 29.97"   Gusts: NA
Location:  47.48°N, 118.25°W
Report Text: KSKA 182018Z AUTO 00000KT 10SM FEW005 BKN010 OVC070 03/03 A2997 RMK AO2 CIG 009V011 $
Loading
Personal Weather Stations






























Interactive Weather Map New forecast layout! Learn more

10-Day Weather Forecast

Advertisements
Track Severe Weather on mobile